Map

Track Data

SID SEASON NUMBER BASIN SUBBASIN NAME ISO_TIME NATURE LAT LON WMO_WIND WMO_PRES WMO_AGENCY TRACK_TYPE DIST2LAND LANDFALL IFLAG USA_AGENCY USA_ATCF_ID USA_LAT USA_LON USA_RECORD USA_STATUS USA_WIND USA_PRES USA_SSHS USA_R34_NE USA_R34_SE USA_R34_SW USA_R34_NW USA_R50_NE USA_R50_SE USA_R50_SW USA_R50_NW USA_R64_NE USA_R64_SE USA_R64_SW USA_R64_NW USA_POCI USA_ROCI USA_RMW USA_EYE TOKYO_LAT TOKYO_LON TOKYO_GRADE TOKYO_WIND TOKYO_PRES TOKYO_R50_DIR TOKYO_R50_LONG TOKYO_R50_SHORT TOKYO_R30_DIR TOKYO_R30_LONG TOKYO_R30_SHORT TOKYO_LAND CMA_LAT CMA_LON CMA_CAT CMA_WIND CMA_PRES HKO_LAT HKO_LON HKO_CAT HKO_WIND HKO_PRES NEWDELHI_LAT NEWDELHI_LON NEWDELHI_GRADE NEWDELHI_WIND NEWDELHI_PRES NEWDELHI_CI NEWDELHI_DP NEWDELHI_POCI REUNION_LAT REUNION_LON REUNION_TYPE REUNION_WIND REUNION_PRES REUNION_TNUM REUNION_CI REUNION_RMW REUNION_R34_NE REUNION_R34_SE REUNION_R34_SW REUNION_R34_NW REUNION_R50_NE REUNION_R50_SE REUNION_R50_SW REUNION_R50_NW REUNION_R64_NE REUNION_R64_SE REUNION_R64_SW REUNION_R64_NW BOM_LAT BOM_LON BOM_TYPE BOM_WIND BOM_PRES BOM_TNUM BOM_CI BOM_RMW BOM_R34_NE BOM_R34_SE BOM_R34_SW BOM_R34_NW BOM_R50_NE BOM_R50_SE BOM_R50_SW BOM_R50_NW BOM_R64_NE BOM_R64_SE BOM_R64_SW BOM_R64_NW BOM_ROCI BOM_POCI BOM_EYE BOM_POS_METHOD BOM_PRES_METHOD NADI_LAT NADI_LON NADI_CAT NADI_WIND NADI_PRES WELLINGTON_LAT WELLINGTON_LON WELLINGTON_WIND WELLINGTON_PRES DS824_LAT DS824_LON DS824_STAGE DS824_WIND DS824_PRES TD9636_LAT TD9636_LON TD9636_STAGE TD9636_WIND TD9636_PRES TD9635_LAT TD9635_LON TD9635_WIND TD9635_PRES TD9635_ROCI NEUMANN_LAT NEUMANN_LON NEUMANN_CLASS NEUMANN_WIND NEUMANN_PRES MLC_LAT MLC_LON MLC_CLASS MLC_WIND MLC_PRES USA_GUST BOM_GUST BOM_GUST_PER REUNION_GUST REUNION_GUST_PER USA_SEAHGT USA_SEARAD_NE USA_SEARAD_SE USA_SEARAD_SW USA_SEARAD_NW STORM_SPEED STORM_DIR
1976062S15115 1976 24 SI WA ALICE 1976-03-02 01:00:00 NR -15.0000 115.400 20 1003 bom main 641 641 ______O_______ -1 -15.0000 115.400 20 20 1003 1.00000 0 0
1976062S15115 1976 24 SI WA ALICE 1976-03-02 03:00:00 NR -15.0123 115.395 main 641 641 ______P_______ -1 -15.0123 115.395 20 20 1003 0 0
1976062S15115 1976 24 SI WA ALICE 1976-03-02 04:00:00 NR -15.0000 115.400 20 1003 bom main 641 641 ______O_______ -1 -15.0000 115.400 20 20 1003 1.00000 2 19
1976062S15115 1976 24 SI WA ALICE 1976-03-02 06:00:00 TS -14.9206 115.427 main 652 652 ______P__O__O_ -1 -14.9309 115.416 20 20 1003 -14.9000 115.400 TC 25 1003 -14.9000 115.500 TC 25 1003 2 0
1976062S15115 1976 24 SI WA ALICE 1976-03-02 07:00:00 TS -14.9021 115.400 20 1003 bom main 652 652 ______O__P__P_ -1 -14.9000 115.400 20 20 1003 1.00000 -14.9043 115.338 TC 25 1003 -14.9043 115.461 TC 25 1003 3 277
1976062S15115 1976 24 SI WA ALICE 1976-03-02 09:00:00 TS -14.9038 115.287 main 654 654 ______P__P__P_ -1 -14.8945 115.293 20 20 1003 -14.9100 115.200 TC 25 1003 -14.9099 115.365 TC 25 1003 4 269
1976062S15115 1976 24 SI WA ALICE 1976-03-02 10:00:00 TS -14.9066 115.205 20 1003 bom main 657 657 ______O__P__P_ -1 -14.9000 115.200 20 20 1003 1.00000 -14.9099 115.116 TC 25 1003 -14.9098 115.298 TC 25 1003 6 270
1976062S15115 1976 24 SI WA ALICE 1976-03-02 12:00:00 TS -14.9026 114.984 main 662 662 ______P__O__O_ -1 -14.9079 114.952 20 20 1003 -14.9000 114.900 TC 25 1003 -14.9000 115.100 TC 25 1003 7 272
1976062S15115 1976 24 SI WA ALICE 1976-03-02 13:00:00 TS -14.8927 114.841 20 1003 bom main 668 668 ______O__P__P_ -1 -14.9000 114.800 20 20 1003 1.00000 -14.8890 114.761 TC 25 1003 -14.8891 114.962 TC 25 1003 9 277
1976062S15115 1976 24 SI WA ALICE 1976-03-02 15:00:00 TS -14.8486 114.513 main 672 672 ______P__P__P_ -1 -14.8308 114.496 20 20 1003 -14.8574 114.425 TC 25 1003 -14.8575 114.617 TC 25 1003 10 278
1976062S15115 1976 24 SI WA ALICE 1976-03-02 16:00:00 TS -14.8258 114.317 20 1003 bom main 672 672 ______O__P__P_ -1 -14.8000 114.300 20 20 1003 1.00000 -14.8386 114.231 TC 25 1003 -14.8388 114.420 TC 25 1003 13 274
1976062S15115 1976 24 SI WA ALICE 1976-03-02 18:00:00 TS -14.8008 113.858 main 676 677 ______P__O__O_ -1 -14.8025 113.775 20 20 1003 -14.8000 113.800 TC 25 1003 -14.8000 114.000 TC 25 1003 14 273
1976062S15115 1976 24 SI WA ALICE 1976-03-02 19:00:00 TS -14.7890 113.615 20 1003 bom main 680 678 ______O__P__P_ -1 -14.8000 113.500 20 20 1003 1.00000 -14.7835 113.557 TC 25 1003 -14.7834 113.787 TC 25 1003 14 275
1976062S15115 1976 24 SI WA ALICE 1976-03-02 21:00:00 TS -14.7438 113.135 main 680 680 ______P__P__P_ -1 -14.7308 113.028 20 20 1003 -14.7504 113.035 TC 25 1003 -14.7501 113.343 TC 25 1003 14 275
1976062S15115 1976 24 SI WA ALICE 1976-03-02 22:00:00 TS -14.7224 112.898 20 1003 bom main 686 686 ______O__P__P_ -1 -14.7000 112.800 20 20 1003 1.00000 -14.7337 112.774 TC 25 1003 -14.7334 113.120 TC 25 1003 14 274
1976062S15115 1976 24 SI WA ALICE 1976-03-03 00:00:00 TS -14.6982 112.437 main 699 699 ______P__O__O_ -1 -14.6946 112.310 20 20 1003 -14.7000 112.300 TC 25 1003 -14.7000 112.700 TC 25 1003 13 273
1976062S15115 1976 24 SI WA ALICE 1976-03-03 01:00:00 TS -14.6870 112.241 20 1003 bom main 705 705 ______O__P__P_ -1 -14.7000 112.100 20 20 1003 1.00000 -14.6805 112.113 TC 25 1003 -14.6806 112.511 TC 25 1003 10 274
1976062S15115 1976 24 SI WA ALICE 1976-03-03 03:00:00 TS -14.6641 111.926 main 705 705 ______P__P__P_ -1 -14.7078 111.817 20 20 1003 -14.6421 111.798 TC 25 1003 -14.6423 112.162 TC 25 1003 9 275
1976062S15115 1976 24 SI WA ALICE 1976-03-03 04:00:00 TS -14.6501 111.787 20 1003 bom main 705 694 ______O__P__P_ -1 -14.7000 111.700 20 20 1003 1.00000 -14.6251 111.660 TC 25 1003 -14.6253 112.001 TC 25 1003 8 278
1976062S15115 1976 24 SI WA ALICE 1976-03-03 06:00:00 TS -14.6103 111.511 main 694 694 ______P__O__O_ -1 -14.6308 111.433 20 20 1003 -14.6000 111.400 TC 25 1003 -14.6000 111.700 TC 25 1003 8 278
1976062S15115 1976 24 SI WA ALICE 1976-03-03 07:00:00 TS -14.5961 111.372 20 1003 bom main 695 695 ______O__P__P_ -1 -14.6000 111.300 20 20 1003 1.00000 -14.5942 111.261 TC 25 1003 -14.5942 111.555 TC 25 1003 8 273
1976062S15115 1976 24 SI WA ALICE 1976-03-03 09:00:00 TS -14.5931 111.104 main 697 697 ______P__P__P_ -1 -14.5946 111.033 20 20 1003 -14.5924 110.993 TC 25 1003 -14.5923 111.285 TC 25 1003 8 270
1976062S15115 1976 24 SI WA ALICE 1976-03-03 10:00:00 TS -14.5963 110.972 20 1003 bom main 698 698 ______O__P__P_ -1 -14.6000 110.900 20 20 1003 1.00000 -14.5945 110.861 TC 25 1003 -14.5944 111.156 TC 25 1003 8 269
1976062S15115 1976 24 SI WA ALICE 1976-03-03 12:00:00 TS -14.6000 110.711 main 702 702 ______P__O__O_ -1 -14.6000 110.633 20 20 1003 -14.6000 110.600 TC 25 1003 -14.6000 110.900 TC 25 1003 8 269
1976062S15115 1976 24 SI WA ALICE 1976-03-03 13:00:00 TS -14.6017 110.577 20 1003 bom main 704 704 ______O__P__P_ -1 -14.6000 110.500 20 20 1003 1.00000 -14.6026 110.464 TC 25 1003 -14.6026 110.767 TC 25 1003 8 269
1976062S15115 1976 24 SI WA ALICE 1976-03-03 15:00:00 TS -14.6050 110.309 main 710 710 ______P__P__P_ -1 -14.6000 110.233 20 20 1003 -14.6075 110.193 TC 25 1003 -14.6074 110.500 TC 25 1003 8 269
1976062S15115 1976 24 SI WA ALICE 1976-03-03 16:00:00 TS -14.6052 110.175 20 1003 bom main 713 713 ______O__P__P_ -1 -14.6000 110.100 20 20 1003 1.00000 -14.6079 110.059 TC 25 1003 -14.6078 110.367 TC 25 1003 8 270
1976062S15115 1976 24 SI WA ALICE 1976-03-03 18:00:00 TS -14.6026 109.911 main 719 719 ______P__O__O_ -1 -14.6079 109.833 20 20 1003 -14.6000 109.800 TC 25 1003 -14.6000 110.100 TC 25 1003 8 272
1976062S15115 1976 24 SI WA ALICE 1976-03-03 19:00:00 TS -14.5910 109.774 20 1003 bom main 721 717 ______O__P__P_ -1 -14.6000 109.700 20 20 1003 1.00000 -14.5864 109.667 TC 25 1003 -14.5864 109.956 TC 25 1003 8 278
1976062S15115 1976 24 SI WA ALICE 1976-03-03 21:00:00 TS -14.5436 109.503 main 717 717 ______P__P__P_ -1 -14.5309 109.425 20 20 1003 -14.5500 109.412 TC 25 1003 -14.5501 109.670 TC 25 1003 8 280
1976062S15115 1976 24 SI WA ALICE 1976-03-03 22:00:00 TS -14.5206 109.377 20 1003 bom main 719 719 ______O__P__P_ -1 -14.5000 109.300 20 20 1003 1.00000 -14.5309 109.296 TC 25 1003 -14.5309 109.535 TC 25 1003 7 278
1976062S15115 1976 24 SI WA ALICE 1976-03-04 00:00:00 TS -14.4982 109.160 main 724 726 ______P__O__O_ -1 -14.4946 109.079 20 20 1003 -14.5000 109.100 TC 25 1003 -14.5000 109.300 TC 25 1003 6 275
1976062S15115 1976 24 SI WA ALICE 1976-03-04 01:00:00 TS -14.4962 109.077 20 1003 bom main 726 726 ______O__P__P_ -1 -14.5000 109.000 20 20 1003 1.00000 -14.4942 109.027 TC 25 1003 -14.4942 109.205 TC 25 1003 4 271
1976062S15115 1976 24 SI WA ALICE 1976-03-04 03:00:00 TS -14.4949 108.968 main 729 729 ______P__P__P_ -1 -14.5000 108.930 20 20 1003 -14.4924 108.920 TC 25 1003 -14.4924 109.055 TC 25 1003 3 270
1976062S15115 1976 24 SI WA ALICE 1976-03-04 04:00:00 TS -14.4963 108.925 20 1003 bom main 732 732 ______O__P__P_ -1 -14.5000 108.900 20 20 1003 1.00000 -14.4945 108.878 TC 25 1003 -14.4945 108.996 TC 25 1003 3 268
1976062S15115 1976 24 SI WA ALICE 1976-03-04 06:00:00 TS -14.5000 108.821 main 735 735 ______P__O__O_ -1 -14.5000 108.764 20 20 1003 -14.5000 108.800 TC 25 1003 -14.5000 108.900 TC 25 1003 3 269
1976062S15115 1976 24 SI WA ALICE 1976-03-04 07:00:00 TS -14.5000 108.767 20 1003 bom main 735 735 ______O__P__P_ -1 -14.5000 108.700 20 20 1003 1.00000 -14.5000 108.745 TC 25 1002 -14.5000 108.855 TC 25 1002 3 270
1976062S15115 1976 24 SI WA ALICE 1976-03-04 09:00:00 TS -14.5000 108.683 main 738 738 ______P__P__P_ -1 -14.5000 108.628 20 23 1002 -14.5000 108.635 TC 25 1002 -14.5000 108.785 TC 25 1002 2 270
1976062S15115 1976 24 SI WA ALICE 1976-03-04 10:00:00 TS -14.5000 108.647 25 1002 bom main 741 741 ______O__P__P_ -1 -14.5000 108.600 20 25 1002 1.50000 -14.5000 108.584 TC 25 1002 -14.5000 108.756 TC 25 1002 2 270
1976062S15115 1976 24 SI WA ALICE 1976-03-04 12:00:00 TS -14.5000 108.578 main 741 741 ______P__O__O_ -1 -14.5000 108.533 20 25 1002 -14.5000 108.500 TC 25 1002 -14.5000 108.700 TC 25 1002 2 269
1976062S15115 1976 24 SI WA ALICE 1976-03-04 13:00:00 TS -14.5017 108.545 25 1002 bom main 745 745 ______O__P__P_ -1 -14.5000 108.500 20 25 1002 1.50000 -14.5026 108.472 TC 25 1001 -14.5026 108.664 TC 25 1001 2 267
1976062S15115 1976 24 SI WA ALICE 1976-03-04 15:00:00 TS -14.5050 108.484 main 745 745 ______P__P__P_ -1 -14.5000 108.425 20 25 1001 -14.5075 108.435 TC 27 1001 -14.5075 108.593 TC 27 1001 2 267
1976062S15115 1976 24 SI WA ALICE 1976-03-04 16:00:00 TS -14.5053 108.460 25 1001 bom main 745 745 ______O__P__P_ -1 -14.5000 108.400 20 25 1001 2.00000 -14.5079 108.422 TC 28 1000 -14.5079 108.559 TC 28 1000 1 272
1976062S15115 1976 24 SI WA ALICE 1976-03-04 18:00:00 TS -14.5026 108.432 main 748 748 ______P__O__O_ -1 -14.5079 108.395 20 25 1000 -14.5000 108.400 TC 30 1000 -14.5000 108.500 TC 30 1000 1 294
1976062S15115 1976 24 SI WA ALICE 1976-03-04 19:00:00 TS -14.4892 108.429 25 1000 bom main 748 738 ______O__P__P_ -1 -14.5000 108.400 20 25 1000 2.00000 -14.4838 108.399 TC 30 999 -14.4838 108.488 TC 30 999 1 339
1976062S15115 1976 24 SI WA ALICE 1976-03-04 21:00:00 TS -14.4386 108.425 main 738 738 ______P__P__P_ -1 -14.4309 108.408 20 25 999 -14.4424 108.395 TC 30 999 -14.4424 108.472 TC 30 999 2 0
1976062S15115 1976 24 SI WA ALICE 1976-03-04 22:00:00 TS -14.4153 108.413 25 999 bom main 738 738 ______O__P__P_ -1 -14.4000 108.400 20 25 999 2.00000 -14.4229 108.381 TC 30 999 -14.4229 108.459 TC 30 999 2 303
1976062S15115 1976 24 SI WA ALICE 1976-03-05 00:00:00 TS -14.3955 108.354 main 738 739 ______P__O__O_ -1 -14.3866 108.362 20 25 999 -14.4000 108.300 TC 30 999 -14.4000 108.400 TC 30 999 2 275
1976062S15115 1976 24 SI WA ALICE 1976-03-05 01:00:00 TS -14.4053 108.288 25 999 bom main 739 739 ______O__P__P_ -1 -14.4000 108.300 20 25 999 2.00000 -14.4079 108.218 TC 30 999 -14.4079 108.347 TC 30 999 5 258
1976062S15115 1976 24 SI WA ALICE 1976-03-05 03:00:00 TS -14.4514 108.082 main 751 750 ______P__P__P_ -1 -14.4692 108.050 20 25 999 -14.4426 107.995 TC 30 999 -14.4425 108.203 TC 30 999 2 121
1976062S15115 1976 24 SI WA ALICE 1976-03-05 04:00:00 TS -14.4628 108.388 25 999 bom main 748 745 ______O__P__P_ -1 -14.5000 107.900 20 25 999 2.00000 -14.4638 107.866 TC 30 999 -14.4637 108.112 TC 30 999 3 100
1976062S15115 1976 24 SI WA ALICE 1976-03-05 06:00:00 TS -14.4792 108.253 main 750 750 O_____P__O__O_ jtwc_sh SH181976 -14.4000 109.900 -1 -14.5054 107.633 20 25 999 -14.5000 107.600 TC 30 999 -14.5000 107.900 TC 30 999 12 267
1976062S15115 1976 24 SI WA ALICE 1976-03-05 07:00:00 TS -14.4959 107.751 25 999 bom main 753 753 P_____O__P__P_ SH181976 -14.3776 109.822 -1 -14.5000 107.500 20 25 999 2.00000 -14.5031 107.478 TC 30 999 -14.5031 107.776 TC 30 999 18 269
1976062S15115 1976 24 SI WA ALICE 1976-03-05 09:00:00 TS -14.5000 107.320 main 759 759 P_____P__P__P_ SH181976 -14.3336 109.665 -1 -14.5000 107.225 20 25 999 -14.5000 107.235 TC 30 999 -14.5001 107.500 TC 30 999 11 270
1976062S15115 1976 24 SI WA ALICE 1976-03-05 10:00:00 TS -14.4984 107.192 25 999 bom main 761 761 P_____O__P__P_ SH181976 -14.3125 109.585 -1 -14.5000 107.100 20 25 999 2.00000 -14.4975 107.117 TC 30 999 -14.4976 107.359 TC 30 999 7 270
1976062S15115 1976 24 SI WA ALICE 1976-03-05 12:00:00 TS -14.4974 106.965 main 765 767 P_____P__O__O_ SH181976 -14.2735 109.419 -1 -14.4921 106.895 20 25 999 -14.5000 106.900 TC 30 999 -14.5000 107.100 TC 30 999 6 268
1976062S15115 1976 24 SI WA ALICE 1976-03-05 13:00:00 TS -14.5073 106.867 25 999 bom main 767 767 P_____O__P__P_ SH181976 -14.2559 109.333 -1 -14.5000 106.800 20 25 999 2.00000 -14.5109 106.803 TC 30 998 -14.5109 107.000 TC 30 998 6 259
1976062S15115 1976 24 SI WA ALICE 1976-03-05 15:00:00 TS -14.5513 106.682 main 782 782 P_____P__P__P_ SH181976 -14.2260 109.152 -1 -14.5691 106.592 20 28 998 -14.5424 106.628 TC 32 998 -14.5424 106.828 TC 32 998 5 256
1976062S15115 1976 24 SI WA ALICE 1976-03-05 16:00:00 TS -14.5741 106.599 30 998 bom main 783 783 P_____O__P__P_ SH181976 -14.2141 109.056 -1 -14.6000 106.500 20 30 998 2.50000 -14.5612 106.548 TC 33 997 -14.5611 106.750 TC 33 997 5 258
1976062S15115 1976 24 SI WA ALICE 1976-03-05 18:00:00 TS -14.5992 106.454 main 785 787 P_____P__O__O_ SH181976 -14.1977 108.851 -1 -14.5975 106.361 20 30 997 -14.6000 106.400 TC 35 997 -14.6000 106.600 TC 35 997 4 261
1976062S15115 1976 24 SI WA ALICE 1976-03-05 19:00:00 TS -14.6094 106.380 30 997 bom main 787 787 P_____O__P__P_ SH181976 -14.1935 108.742 -1 -14.6000 106.300 20 30 997 2.50000 -14.6140 106.328 TC 35 996 -14.6140 106.511 TC 35 996 4 257
1976062S15115 1976 24 SI WA ALICE 1976-03-05 21:00:00 TS -14.6514 106.231 main 803 803 P_____P__P__P_ SH181976 -14.1947 108.507 -1 -14.6691 106.167 20 33 995 -14.6425 106.192 TC 37 995 -14.6425 106.335 TC 37 996 4 254
1976062S15115 1976 24 SI WA ALICE 1976-03-05 22:00:00 TS -14.6725 106.160 35 995 bom main 803 803 P_____O__P__P_ SH181976 -14.2004 108.381 -1 -14.7000 106.100 30 35 995 3.00000 -14.6587 106.128 TC 38 995 -14.6588 106.251 TC 38 995 4 257
1976062S15115 1976 24 SI WA ALICE 1976-03-06 00:00:00 TS -14.6992 106.022 main 808 808 P_____P__O__O_ SH181976 -14.2234 108.108 -1 -14.6975 105.967 30 38 994 -14.7000 106.000 TC 40 994 -14.7000 106.100 TC 40 995 4 257
1976062S15115 1976 24 SI WA ALICE 1976-03-06 01:00:00 TS -14.7166 105.955 40 994 bom main 808 808 P_____O__P__P_ SH181976 -14.2410 107.961 -1 -14.7000 105.900 30 40 994 3.00000 -14.7248 105.930 TC 40 993 -14.7250 106.036 TC 40 994 4 249
1976062S15115 1976 24 SI WA ALICE 1976-03-06 03:00:00 TS -14.7743 105.826 main 824 805 P_____P__P__P_ SH181976 -14.2898 107.643 -1 -14.7533 105.759 30 40 992 -14.7845 105.790 TC 42 992 -14.7850 105.927 TC 42 993 3 91
1976062S15115 1976 24 SI WA ALICE 1976-03-06 04:00:00 TS -14.7200 106.114 40 992 bom main 805 803 P_____O__P__P_ SH181976 -14.3214 107.471 -1 -14.8000 105.700 30 40 992 3.00000 -14.8195 105.723 TC 43 992 -14.8200 105.881 TC 43 993 6 85
1976062S15115 1976 24 SI WA ALICE 1976-03-06 06:00:00 TS -14.7465 106.150 main 805 803 O_____P__O__O_ jtwc_sh SH181976 -14.4000 107.100 -1 -14.9358 105.628 30 43 991 -14.9000 105.600 TC 45 991 -14.9000 105.800 TC 45 992 1 117
1976062S15115 1976 24 SI WA ALICE 1976-03-06 07:00:00 TS -14.7458 106.177 45 991 bom main 803 803 P_____O__P__P_ SH181976 -14.4476 106.901 -1 -15.0000 105.600 30 45 991 3.00000 -14.9437 105.549 TC 45 990 -14.9417 105.761 TC 45 991 3 241
1976062S15115 1976 24 SI WA ALICE 1976-03-06 09:00:00 TS -14.8076 106.031 main 819 819 P_____P__P__P_ SH181976 -14.5629 106.501 -1 -15.0642 105.533 30 45 990 -15.0421 105.462 TC 46 990 -15.0350 105.692 TC 47 990 5 244
1976062S15115 1976 24 SI WA ALICE 1976-03-06 10:00:00 TS -14.8654 105.922 45 990 bom main 832 832 P_____O__P__P_ SH181976 -14.6324 106.314 -1 -15.1000 105.500 30 45 990 3.00000 -15.0962 105.426 TC 46 990 -15.0867 105.661 TC 48 990 7 235
1976062S15115 1976 24 SI WA ALICE 1976-03-06 12:00:00 TS -15.0067 105.733 main 848 848 O_____P__PO_O_ jtwc_sh SH181976 -14.8000 106.000 -1 -15.2279 105.433 30 45 988 -15.2124 105.362 TC 47 989 -14.8000 106.000 2 -15.2000 105.600 TC 50 989 7 228
1976062S15115 1976 24 SI WA ALICE 1976-03-06 13:00:00 TS -15.0883 105.663 45 988 bom main 859 859 P_____O__PP_P_ SH181976 -14.9020 105.896 -1 -15.3000 105.400 30 45 988 3.00000 -15.2738 105.334 TC 47 989 -14.9199 105.932 2 -15.2636 105.567 TC 50 988 6 214
1976062S15115 1976 24 SI WA ALICE 1976-03-06 15:00:00 TS -15.2659 105.553 main 884 887 P_____P__PP_P_ SH181976 -15.1347 105.755 -1 -15.4333 105.333 30 48 988 -15.4015 105.281 TC 48 988 -15.1579 105.796 2 -15.4000 105.500 TC 50 988 6 209
1976062S15115 1976 24 SI WA ALICE 1976-03-06 16:00:00 TS -15.3590 105.507 50 988 bom main 897 897 P_____O__PP_P_ SH181976 -15.2581 105.703 -1 -15.5000 105.300 30 50 988 3.00000 -15.4671 105.255 TC 49 988 -15.2749 105.726 2 -15.4691 105.467 TC 50 988 6 206
1976062S15115 1976 24 SI WA ALICE 1976-03-06 18:00:00 TS -15.5445 105.418 main 911 922 O_____P__OP_O_ jtwc_sh SH181976 -15.5000 105.600 -1 -15.6333 105.233 30 50 988 -15.6000 105.200 TC 50 988 -15.5025 105.583 2 -15.6000 105.400 TC 50 988 6 206
1976062S15115 1976 24 SI WA ALICE 1976-03-06 19:00:00 TS -15.6301 105.370 50 988 bom main 922 922 P_____O__PP_P_ SH181976 -15.6109 105.525 -1 -15.7000 105.200 30 50 988 3.00000 -15.6585 105.179 TC 50 988 -15.6122 105.509 2 -15.6478 105.377 TC 50 988 6 209
1976062S15115 1976 24 SI WA ALICE 1976-03-06 21:00:00 TS -15.7979 105.270 main 947 947 P_____P__PP_P_ SH181976 -15.8225 105.365 -1 -15.8412 105.133 30 50 988 -15.7812 105.132 TC 50 988 -15.8209 105.354 2 -15.7349 105.330 TC 50 988 6 211
1976062S15115 1976 24 SI WA ALICE 1976-03-06 22:00:00 TS -15.8780 105.215 50 988 bom main 960 960 P_____O__PP_P_ SH181976 -15.9212 105.280 -1 -15.9000 105.100 30 50 988 3.50000 -15.8481 105.100 TC 50 988 -15.9190 105.272 2 -15.7817 105.298 TC 50 988 6 217
1976062S15115 1976 24 SI WA ALICE 1976-03-07 00:00:00 TS -16.0260 105.092 main 973 973 O_____P__OO_O_ jtwc_sh SH181976 -16.1000 105.100 -1 -15.9563 105.049 30 50 988 -16.0000 105.000 TC 50 988 -16.1000 105.100 2 -15.9000 105.200 TC 50 988 6 221
1976062S15115 1976 24 SI WA ALICE 1976-03-07 01:00:00 TS -16.1034 105.010 50 988 bom main 986 986 P_____O__PP_P_ SH181976 -16.1807 105.006 -1 -16.0000 105.000 30 50 988 3.50000 -16.0912 104.920 TC 50 988 -16.1821 105.009 2 -15.9855 105.120 TC 50 988 7 227
1976062S15115 1976 24 SI WA ALICE 1976-03-07 03:00:00 TS -16.2724 104.816 main 1011 1011 P_____P__PP_P_ SH181976 -16.3225 104.807 -1 -16.1812 104.819 30 50 988 -16.2926 104.723 TC 50 988 -16.3303 104.817 2 -16.1851 104.923 TC 50 988 8 228
1976062S15115 1976 24 SI WA ALICE 1976-03-07 04:00:00 TS -16.3594 104.709 50 988 bom main 1024 1024 P_____O__PP_P_ SH181976 -16.3854 104.705 -1 -16.3000 104.700 30 50 988 3.50000 -16.3971 104.614 TC 50 988 -16.3971 104.718 2 -16.2917 104.814 TC 50 988 8 230
1976062S15115 1976 24 SI WA ALICE 1976-03-07 06:00:00 TS -16.5311 104.491 main 1039 1039 O_____P__OP_O_ jtwc_sh SH181976 -16.5000 104.500 -1 -16.5692 104.431 30 50 988 -16.6000 104.400 TC 50 988 -16.5175 104.515 2 -16.5000 104.600 TC 50 988 8 231
1976062S15115 1976 24 SI WA ALICE 1976-03-07 07:00:00 TS -16.6133 104.388 50 988 bom main 1052 1052 P_____O__PP_P_ SH181976 -16.5557 104.397 -1 -16.7000 104.300 30 50 988 3.50000 -16.6995 104.311 TC 48 988 -16.5720 104.412 2 -16.5969 104.511 TC 49 988 7 231
1976062S15115 1976 24 SI WA ALICE 1976-03-07 09:00:00 TS -16.7611 104.194 main 1079 1079 P_____P__PP_P_ SH181976 -16.6575 104.192 -1 -16.9133 104.087 30 50 989 -16.8874 104.143 TC 45 991 -16.6710 104.205 2 -16.7799 104.342 TC 47 990 7 232
1976062S15115 1976 24 SI WA ALICE 1976-03-07 10:00:00 TS -16.8266 104.101 50 990 bom main 1081 1081 P_____O__PP_P_ SH181976 -16.7054 104.092 -1 -17.0000 104.000 30 50 990 3.50000 -16.9703 104.061 TC 43 991 -16.7162 104.102 2 -16.8624 104.261 TC 46 990 6 234
1976062S15115 1976 24 SI WA ALICE 1976-03-07 12:00:00 TS -16.9424 103.928 main 1097 1108 O_____P__OO_O_ jtwc_sh SH181976 -16.8000 103.900 -1 -17.1545 103.869 30 50 992 -17.1000 103.900 TC 40 994 -16.8000 103.900 2 -17.0000 104.100 TC 45 992 6 236
1976062S15115 1976 24 SI WA ALICE 1976-03-07 13:00:00 TS -16.9919 103.844 50 994 bom main 1111 1111 P_____O__PP_P_ SH181976 -16.8552 103.814 -1 -17.2000 103.800 30 50 994 3.50000 -17.1395 103.814 TC 40 994 -16.8482 103.805 2 -17.0531 104.017 TC 44 992 6 244
1976062S15115 1976 24 SI WA ALICE 1976-03-07 15:00:00 TS -17.0647 103.668 main 1125 1125 P_____P__PP_P_ SH181976 -16.9649 103.650 -1 -17.2109 103.598 30 46 994 -17.1800 103.642 TC 40 994 -16.9376 103.618 2 -17.1300 103.850 TC 42 993 5 248
1976062S15115 1976 24 SI WA ALICE 1976-03-07 16:00:00 TS -17.0927 103.581 45 995 bom main 1127 1127 P_____O__PP_P_ SH181976 -17.0157 103.569 -1 -17.2000 103.500 30 45 995 3.50000 -17.1884 103.559 TC 40 994 -16.9786 103.525 2 -17.1575 103.767 TC 41 993 5 253
1976062S15115 1976 24 SI WA ALICE 1976-03-07 18:00:00 TS -17.1407 103.417 main 1133 1133 O_____P__OP_O_ jtwc_sh SH181976 -17.1000 103.400 -1 -17.1921 103.361 30 41 995 -17.2000 103.400 TC 40 995 -17.0523 103.342 2 -17.2000 103.600 TC 40 994 5 253
1976062S15115 1976 24 SI WA ALICE 1976-03-07 19:00:00 TS -17.1651 103.334 40 995 bom main 1147 1147 P_____O__PP_P_ SH181976 -17.1307 103.303 -1 -17.2000 103.300 30 40 995 3.50000 -17.2193 103.330 TC 38 995 -17.0848 103.252 2 -17.2250 103.514 TC 39 994 5 253
1976062S15115 1976 24 SI WA ALICE 1976-03-07 21:00:00 TS -17.2129 103.163 main 1151 1154 P_____P__PP_P_ SH181976 -17.1725 103.100 -1 -17.2691 103.167 30 40 996 -17.2574 103.200 TC 35 997 -17.1408 103.071 2 -17.2650 103.342 TC 37 995 5 255
1976062S15115 1976 24 SI WA ALICE 1976-03-07 22:00:00 TS -17.2316 103.078 40 997 bom main 1154 1154 P_____O__PP_P_ SH181976 -17.1854 102.998 -1 -17.3000 103.100 30 40 997 3.00000 -17.2745 103.136 TC 33 997 -17.1639 102.981 2 -17.2800 103.259 TC 36 995 5 261
1976062S15115 1976 24 SI WA ALICE 1976-03-08 00:00:00 TS -17.2509 102.911 main 1171 1171 O_____P__OO_O_ jtwc_sh SH181976 -17.2000 102.800 -1 -17.3054 102.967 30 36 998 -17.3000 103.000 TC 30 999 -17.2000 102.800 2 -17.3000 103.100 TC 35 997 5 264
1976062S15115 1976 24 SI WA ALICE 1976-03-08 01:00:00 TS -17.2562 102.832 35 999 bom main 1175 1175 P_____O__PP_P_ SH181976 -17.2057 102.714 -1 -17.3000 102.900 30 35 999 3.00000 -17.3057 102.922 TC 30 999 -17.2146 102.711 2 -17.3057 103.030 TC 34 997 4 268
1976062S15115 1976 24 SI WA ALICE 1976-03-08 03:00:00 TS -17.2604 102.677 main 1179 1179 P_____P__PP_P_ SH181976 -17.2074 102.550 -1 -17.3000 102.775 30 31 999 -17.3075 102.757 TC 30 999 -17.2326 102.533 2 -17.3074 102.900 TC 32 998 4 269
1976062S15115 1976 24 SI WA ALICE 1976-03-08 04:00:00 TS -17.2597 102.598 30 999 bom main 1182 1182 P_____O__PP_P_ SH181976 -17.2054 102.469 -1 -17.3000 102.700 20 30 999 3.00000 -17.3054 102.672 TC 30 999 -17.2368 102.444 2 -17.3054 102.836 TC 31 998 5 271
1976062S15115 1976 24 SI WA ALICE 1976-03-08 06:00:00 TS -17.2562 102.428 main 1190 1190 O_____P__OP_O_ jtwc_sh SH181976 -17.2000 102.300 -1 -17.3000 102.505 20 30 999 -17.3000 102.500 TC 30 999 -17.2372 102.265 2 -17.3000 102.700 TC 30 999 5 271
1976062S15115 1976 24 SI WA ALICE 1976-03-08 07:00:00 TS -17.2566 102.339 30 999 bom main 1194 1194 P_____O__PP_P_ SH181976 -17.2000 102.203 -1 -17.3000 102.400 20 30 999 2.50000 -17.3026 102.425 TC 29 999 -17.2342 102.174 2 -17.3026 102.628 TC 29 999 5 270
1976062S15115 1976 24 SI WA ALICE 1976-03-08 09:00:00 TS -17.2563 102.154 main 1198 1202 P_____P__PP_P_ SH181976 -17.2000 102.000 -1 -17.3000 102.192 20 30 999 -17.3074 102.273 TC 27 1001 -17.2232 101.989 2 -17.3074 102.473 TC 27 1000 5 270
1976062S15115 1976 24 SI WA ALICE 1976-03-08 10:00:00 TS -17.2553 102.061 30 1000 bom main 1202 1201 P_____O__PP_P_ SH181976 -17.2000 101.898 -1 -17.3000 102.100 20 30 1000 2.50000 -17.3078 102.190 TC 26 1001 -17.2160 101.895 2 -17.3078 102.388 TC 26 1000 5 271
1976062S15115 1976 24 SI WA ALICE 1976-03-08 12:00:00 TS -17.2500 101.880 main 1201 1201 O_____P__OO_O_ jtwc_sh SH181976 -17.2000 101.700 -1 -17.3000 101.977 20 30 1002 -17.3000 102.000 TC 25 1003 -17.2000 101.700 2 -17.3000 102.200 TC 25 1001 5 272
1976062S15115 1976 24 SI WA ALICE 1976-03-08 13:00:00 TS -17.2478 101.787 30 1003 bom main 1205 1205 P_____O__PP_P_ SH181976 -17.2025 101.619 -1 -17.3000 101.900 20 30 1003 2.50000 -17.2917 101.884 TC 25 1002 -17.2010 101.606 2 -17.2890 102.097 TC 25 1001 6 272
1976062S15115 1976 24 SI WA ALICE 1976-03-08 15:00:00 TS -17.2412 101.581 main 1214 1214 P_____P__PP_P_ SH181976 -17.2073 101.465 -1 -17.3079 101.644 20 26 1003 -17.2650 101.623 TC 25 1002 -17.2021 101.414 2 -17.2575 101.872 TC 25 1001 6 273
1976062S15115 1976 24 SI WA ALICE 1976-03-08 16:00:00 TS -17.2337 101.470 25 1003 bom main 1219 1219 P_____O__PP_P_ SH181976 -17.2078 101.385 -1 -17.3000 101.500 20 25 1003 2.50000 -17.2467 101.483 TC 25 1002 -17.2013 101.315 2 -17.2387 101.752 TC 25 1001 7 276
1976062S15115 1976 24 SI WA ALICE 1976-03-08 18:00:00 TS -17.2055 101.241 main 1234 1234 O_____P__OP_O_ jtwc_sh SH181976 -17.2000 101.200 -1 -17.2387 101.233 20 25 1002 -17.2000 101.200 TC 25 1002 -17.1944 101.110 2 -17.2000 101.500 TC 25 1002 7 278
1976062S15115 1976 24 SI WA ALICE 1976-03-08 19:00:00 TS -17.1882 101.123 25 1002 bom main 1239 1239 P_____O__PP_P_ SH181976 -17.1917 101.086 -1 -17.2000 101.100 20 25 1002 2.00000 -17.1722 101.077 TC 25 1002 -17.1875 101.003 2 -17.1859 101.383 TC 25 1002 7 279
1976062S15115 1976 24 SI WA ALICE 1976-03-08 21:00:00 TS -17.1487 100.873 main 1239 1239 P_____P__PP_P_ SH181976 -17.1650 100.830 -1 -17.1333 100.833 20 25 1002 -17.1072 100.830 TC 25 1002 -17.1645 100.777 2 -17.1573 101.138 TC 25 1002 7 280
1976062S15115 1976 24 SI WA ALICE 1976-03-08 22:00:00 TS -17.1256 100.740 25 1003 bom main 1250 1250 P_____O__PP_P_ SH181976 -17.1466 100.691 -1 -17.1000 100.700 20 25 1003 2.00000 -17.0718 100.698 TC 25 1002 -17.1475 100.656 2 -17.1410 101.004 TC 25 1002 8 281
1976062S15115 1976 24 SI WA ALICE 1976-03-09 00:00:00 TS -17.0722 100.458 main 1261 1265 O_____P__OO_O_ jtwc_sh SH181976 -17.1000 100.400 -1 -17.0333 100.449 20 25 1003 -17.0000 100.400 TC 25 1003 -17.1000 100.400 2 -17.1000 100.700 TC 25 1002 9 281
1976062S15115 1976 24 SI WA ALICE 1976-03-09 01:00:00 TS -17.0459 100.303 25 1003 bom main 1260 1260 P_____O__PP_P_ SH181976 -17.0776 100.258 -1 -17.0000 100.300 20 25 1003 2.00000 -16.9720 100.220 TC 25 1002 -17.0705 100.262 2 -17.0777 100.520 TC 25 1001 10 280
1976062S15115 1976 24 SI WA ALICE 1976-03-09 03:00:00 TS -16.9857 99.9604 main 1274 1279 P_____P__PP_P_ SH181976 -17.0224 99.9651 -1 -16.9333 99.9188 20 25 1002 -16.9151 99.8226 TC 27 1002 -16.9982 99.9680 2 -17.0226 100.123 TC 25 1001 10 281
1976062S15115 1976 24 SI WA ALICE 1976-03-09 04:00:00 TS -16.9503 99.7781 25 1002 bom main 1284 1279 P_____O__PP_P_ SH181976 -16.9878 99.8134 -1 -16.9000 99.7000 20 25 1002 2.00000 -16.8826 99.6140 TC 28 1001 -16.9559 99.8140 2 -16.9880 99.9139 TC 25 1001 11 282
1976062S15115 1976 24 SI WA ALICE 1976-03-09 06:00:00 TS -16.8682 99.4030 main 1294 1290 O_____P__OP_O_ jtwc_sh SH181976 -16.9000 99.5000 -1 -16.8492 99.2230 20 25 1001 -16.8000 99.2000 TC 30 1001 -16.8601 99.4949 2 -16.9000 99.5000 TC 25 1001 11 284
1976062S15115 1976 24 SI WA ALICE 1976-03-09 07:00:00 TS -16.8139 99.2179 25 1001 bom main 1296 1296 P_____O__PP_P_ SH181976 -16.8447 99.3364 -1 -16.8000 99.0000 20 25 1001 1.50000 -16.7421 99.0004 TC 29 1001 -16.8071 99.3313 2 -16.8447 99.3031 TC 25 1001 11 291
1976062S15115 1976 24 SI WA ALICE 1976-03-09 09:00:00 TS -16.6732 98.8659 main 1303 1299 P_____P__PP_P_ SH181976 -16.7150 98.9999 -1 -16.5950 98.6637 20 25 1001 -16.6075 98.6124 TC 27 1002 -16.6919 98.9994 2 -16.7150 98.9199 TC 25 1001 11 293
1976062S15115 1976 24 SI WA ALICE 1976-03-09 10:00:00 TS -16.5998 98.6935 25 1002 bom main 1305 1305 P_____O__PP_P_ SH181976 -16.6442 98.8308 -1 -16.5000 98.5000 20 25 1002 1.50000 -16.5363 98.4295 TC 26 1002 -16.6302 98.8324 2 -16.6442 98.7375 TC 25 1001 11 292
1976062S15115 1976 24 SI WA ALICE 1976-03-09 12:00:00 TS -16.4717 98.3470 main 1320 1311 O_____P__OO_O_ jtwc_sh SH181976 -16.5000 98.5000 -1 -16.4304 98.0818 20 25 1002 -16.4000 98.1000 TC 25 1003 -16.5000 98.5000 2 -16.5000 98.4000 TC 25 1002 10 291
1976062S15115 1976 24 SI WA ALICE 1976-03-09 13:00:00 TS -16.4148 98.1897 25 1003 bom main 1317 1317 P_____O__PP_P_ SH181976 -16.4359 98.3470 -1 -16.4000 97.9000 20 25 1003 1.50000 -16.3468 97.9580 TC 25 1003 -16.4398 98.3418 2 -16.4306 98.2444 TC 25 1002 9 294
1976062S15115 1976 24 SI WA ALICE 1976-03-09 15:00:00 TS -16.2902 97.9141 main 1327 1325 P_____P__PP_P_ SH181976 -16.3073 98.0502 -1 -16.2720 97.6837 20 25 1003 -16.2498 97.7127 TC 25 1003 -16.3125 98.0253 2 -16.2924 97.9626 TC 25 1002 9 296
1976062S15115 1976 24 SI WA ALICE 1976-03-09 16:00:00 TS -16.2258 97.7851 25 1003 bom main 1325 1325 P_____O__PP_P_ SH181976 -16.2411 97.9026 -1 -16.2000 97.6000 20 25 1003 1.50000 -16.2023 97.6039 TC 25 1003 -16.2450 97.8671 2 -16.2253 97.8346 TC 25 1002 8 298
1976062S15115 1976 24 SI WA ALICE 1976-03-09 18:00:00 TS -16.0948 97.5251 main 1337 1335 O_____P__OP_O_ jtwc_sh SH181976 -16.1000 97.6000 -1 -16.0667 97.4000 20 25 1003 -16.1000 97.4000 TC 25 1003 -16.1021 97.5505 2 -16.1000 97.6000 TC 25 1003 9 298
1976062S15115 1976 24 SI WA ALICE 1976-03-09 19:00:00 TS -16.0279 97.3913 25 1003 bom main 1335 1335 P_____O__PP_P_ SH181976 -16.0250 97.4365 -1 -16.0000 97.3000 20 25 1003 1.50000 -16.0416 97.2943 TC 24 1003 -16.0263 97.3921 2 -16.0495 97.4887 TC 25 1003 9 298
1976062S15115 1976 24 SI WA ALICE 1976-03-09 21:00:00 TS -15.8878 97.1255 main 1348 1347 P_____P__PP_P_ SH181976 -15.8650 97.1001 -1 -15.8588 97.1000 20 25 1003 -15.9149 97.0926 TC 22 1003 -15.8656 97.0754 2 -15.9574 97.2852 TC 25 1003 9 299
1976062S15115 1976 24 SI WA ALICE 1976-03-09 22:00:00 TS -15.8162 96.9938 25 1004 bom main 1347 1346 P_____O__PP_P_ SH181976 -15.7800 96.9309 -1 -15.8000 97.0000 20 25 1004 1.50000 -15.8466 96.9946 TC 21 1003 -15.7805 96.9170 2 -15.9103 97.1893 TC 25 1003 9 300
1976062S15115 1976 24 SI WA ALICE 1976-03-10 00:00:00 TS -15.6739 96.7333 main 1360 1352 O_____P__OO_O_ jtwc_sh SH181976 -15.6000 96.6000 -1 -15.7437 96.8000 20 21 1004 -15.7000 96.8000 TC 20 1004 -15.6000 96.6000 2 -15.8000 97.0000 TC 25 1003 9 301
1976062S15115 1976 24 SI WA ALICE 1976-03-10 01:00:00 TS -15.5939 96.6068 20 1004 bom main 1360 1359 P_____O__PP_P_ SH181976 -15.5082 96.4470 -1 -15.7000 96.7000 20 20 1004 1.50000 -15.6250 96.7000 TC 20 1003 -15.4913 96.4465 2 -15.7307 96.9000 TC 25 1002 9 306
1976062S15115 1976 24 SI WA ALICE 1976-03-10 03:00:00 TS -15.4061 96.3569 main 1359 1359 P_____P__PP_P_ SH181976 -15.3148 96.1502 -1 -15.5109 96.5000 20 20 1003 -15.4650 96.5001 TC 22 1003 -15.2585 96.1408 2 -15.5725 96.7000 TC 25 1002 9 309
1976062S15115 1976 24 SI WA ALICE 1976-03-10 04:00:00 TS -15.3049 96.2322 20 1003 bom main 1367 1367 P_____O__PP_P_ SH181976 -15.2132 96.0026 -1 -15.4000 96.4000 20 20 1003 1.50000 -15.3800 96.4001 TC 23 1002 -15.1379 95.9878 2 -15.4854 96.6000 TC 25 1002 10 310
1976062S15115 1976 24 SI WA ALICE 1976-03-10 06:00:00 TS -15.0995 95.9799 main 1368 1368 O_____P__OP_O_ jtwc_sh SH181976 -15.0000 95.7000 -1 -15.2000 96.2000 20 20 1002 -15.2000 96.2000 TC 25 1002 -14.8967 95.6792 2 -15.3000 96.4000 TC 25 1002 10 311
1976062S15115 1976 24 SI WA ALICE 1976-03-10 07:00:00 TS -14.9904 95.8576 20 1002 bom main 1368 1368 P_____O__PP_P_ SH181976 -14.8785 95.5416 -1 -15.1000 96.1000 20 20 1002 1.50000 -15.1029 96.1211 TC 25 1001 -14.7797 95.5227 2 -15.2029 96.3185 TC 25 1001 10 312
1976062S15115 1976 24 SI WA ALICE 1976-03-10 09:00:00 TS -14.7693 95.6076 main 1379 1371 P_____P__PP_P_ SH181976 -14.6274 95.2149 -1 -14.9000 95.9000 20 20 1001 -14.8996 95.9602 TC 27 1001 -14.5616 95.2031 2 -14.9997 96.1527 TC 27 1001 10 312
1976062S15115 1976 24 SI WA ALICE 1976-03-10 10:00:00 TS -14.6621 95.4752 20 1001 bom main 1380 1373 P_____O__PP_P_ SH181976 -14.5071 95.0466 -1 -14.8000 95.8000 20 20 1001 1.00000 -14.7972 95.8634 TC 28 1000 -14.4639 95.0390 2 -14.8972 96.0555 TC 28 1000 10 307
1976062S15115 1976 24 SI WA ALICE 1976-03-10 12:00:00 TS -14.4666 95.1899 main 1391 1391 O_____P__OO_O_ jtwc_sh SH181976 -14.3000 94.7000 -1 -14.5999 95.6396 20 20 1000 -14.6000 95.6000 TC 30 1000 -14.3000 94.7000 2 -14.7000 95.8000 TC 30 1000 10 303
1976062S15115 1976 24 SI WA ALICE 1976-03-10 13:00:00 TS -14.3798 95.0218 20 1000 bom main 1402 1402 P_____O__PP_P_ SH181976 -14.2166 94.5251 -1 -14.5000 95.5000 20 20 1000 1.00000 -14.5031 95.4228 TC 30 1000 -14.2368 94.5242 2 -14.6057 95.6338 TC 30 1000 12 293
1976062S15115 1976 24 SI WA ALICE 1976-03-10 15:00:00 TS -14.2275 94.6178 main 1417 1417 P_____P__PP_P_ SH181976 -14.0899 94.1651 -1 -14.2922 94.9938 20 20 1000 -14.3199 94.9898 TC 30 1000 -14.1459 94.1607 2 -14.4274 95.2324 TC 30 1000 13 289
1976062S15115 1976 24 SI WA ALICE 1976-03-10 16:00:00 TS -14.1653 94.3964 20 1000 bom main 1431 1430 P_____O__PP_P_ SH181976 -14.0465 93.9800 -1 -14.2000 94.7000 20 20 1000 1.00000 -14.2374 94.7415 TC 30 1000 -14.1159 93.9737 2 -14.3453 95.0029 TC 30 1000 13 283
1976062S15115 1976 24 SI WA ALICE 1976-03-10 18:00:00 TS -14.0724 93.9443 main 1459 1457 O_____P__OP_O_ jtwc_sh SH181976 -14.0000 93.6000 -1 -14.0532 94.1746 20 20 1000 -14.1000 94.2000 TC 30 1001 -14.0815 93.5910 2 -14.2000 94.5000 TC 30 1000 14 281
1976062S15115 1976 24 SI WA ALICE 1976-03-10 19:00:00 TS -14.0405 93.7049 20 1001 bom main 1464 1464 P_____O__PP_P_ SH181976 -13.9964 93.4051 -1 -14.0000 93.9000 20 20 1001 1.00000 -14.0446 93.8993 TC 29 1001 -14.0747 93.3961 2 -14.1309 94.2238 TC 29 1000 14 276
1976062S15115 1976 24 SI WA ALICE 1976-03-10 21:00:00 TS -13.9969 93.2314 main 1500 1500 P_____P__PP_P_ SH181976 -14.0203 93.0077 -1 -13.9200 93.3054 20 20 1001 -13.9631 93.2626 TC 27 1002 -14.0763 93.0008 2 -14.0129 93.6349 TC 27 1001 14 276
1976062S15115 1976 24 SI WA ALICE 1976-03-10 22:00:00 TS -13.9745 92.9996 20 1002 bom main 1515 1515 P_____O__PP_P_ SH181976 -14.0433 92.8061 -1 -13.9000 93.0000 20 20 1002 1.00000 -13.9351 92.9507 TC 26 1002 -14.0825 92.8012 2 -13.9658 93.3409 TC 26 1001 14 275
1976062S15115 1976 24 SI WA ALICE 1976-03-11 00:00:00 TS -13.9386 92.4961 main 1537 1537 O_____P__OO_O_ jtwc_sh SH181976 -14.1000 92.4000 -1 -13.8946 92.3605 20 20 1002 -13.9000 92.4000 TC 25 1003 -14.1000 92.4000 2 -13.9000 92.8000 TC 25 1002 14 277
1976062S15115 1976 24 SI WA ALICE 1976-03-11 01:00:00 TS -13.8903 92.2894 20 1003 bom main 1547 1547 ______O__P__P_ SH181976 -1 -13.9000 92.1000 20 20 1003 1.00000 -13.8882 92.1961 TC 25 1003 2 -13.8827 92.5721 TC 25 1002 11 276
1976062S15115 1976 24 SI WA ALICE 1976-03-11 03:00:00 TS -13.8872 91.9496 main 1568 1568 ______P__P__P_ SH181976 -1 -13.8999 91.7983 20 20 1003 -13.8845 91.8752 TC 25 1003 2 -13.8772 92.1753 TC 25 1002 9 270
1976062S15115 1976 24 SI WA ALICE 1976-03-11 04:00:00 TS -13.8907 91.8153 20 1003 bom main 1574 1574 ______O__P__P_ SH181976 -1 -13.9000 91.7000 20 20 1003 1.00000 -13.8887 91.7434 TC 25 1003 2 -13.8835 92.0027 TC 25 1002 7 268
1976062S15115 1976 24 SI WA ALICE 1976-03-11 06:00:00 TS -13.9000 91.5675 main 1585 1590 ______P__O__O_ -1 -13.9000 91.5025 20 20 1003 -13.9000 91.5000 TC 25 1003 2 -13.9000 91.7000 TC 25 1003 7 269
1976062S15115 1976 24 SI WA ALICE 1976-03-11 07:00:00 TS -13.8981 91.4483 20 1003 bom main 1596 1596 ______O__P__P_ -1 -13.9000 91.4000 20 20 1003 1.00000 -13.8972 91.3714 TC 25 1003 2 -13.8972 91.5736 TC 25 1003 7 271
1976062S15115 1976 24 SI WA ALICE 1976-03-11 09:00:00 TS -13.8948 91.2062 main 1608 1608 ______P__P__P_ -1 -13.9000 91.1388 20 20 1003 -13.8922 91.1224 TC 25 1003 2 -13.8921 91.3575 TC 25 1003 7 271
1976062S15115 1976 24 SI WA ALICE 1976-03-11 10:00:00 TS -13.8945 91.0813 20 1003 bom main 1613 1613 ______O__P__P_ -1 -13.9000 91.0000 20 20 1003 1.00000 -13.8918 90.9928 TC 25 1003 2 -13.8917 91.2511 TC 25 1003 8 270
1976062S15115 1976 24 SI WA ALICE 1976-03-11 12:00:00 TS -13.8973 90.8164 main 1631 1631 ______P__O__O_ -1 -13.8920 90.7491 20 20 1003 -13.9000 90.7000 TC 25 1003 -13.9000 91.0000 TC 25 1003 8 268
1976062S15115 1976 24 SI WA ALICE 1976-03-11 13:00:00 TS -13.9091 90.6522 20 1003 bom main 1637 1637 ______O__P__P_ -1 -13.9000 90.6000 20 20 1003 1.00000 -13.9136 90.5255 TC 24 1003 -13.9136 90.8312 TC 25 1003 11 264
1976062S15115 1976 24 SI WA ALICE 1976-03-11 15:00:00 TS -13.9564 90.2672 main 1671 1677 ______P__P__P_ -1 -13.9691 90.2188 20 20 1003 -13.9500 90.1376 TC 22 1003 -13.9500 90.4451 TC 25 1003 12 263
1976062S15115 1976 24 SI WA ALICE 1976-03-11 16:00:00 TS -13.9794 90.0549 20 1004 bom main 1684 1684 ______O__P__P_ -1 -14.0000 90.0000 20 20 1004 1.00000 -13.9691 89.9297 TC 21 1003 -13.9691 90.2351 TC 25 1003 13 266
1976062S15115 1976 24 SI MM ALICE 1976-03-11 18:00:00 TS -14.0018 89.6103 main 1716 1716 ______P__O__O_ -1 -14.0054 89.5308 20 20 1004 -14.0000 89.5000 TC 20 1004 -14.0000 89.8000 TC 25 1003 13 268
1976062S15115 1976 24 SI MM ALICE 1976-03-11 19:00:00 TS -14.0055 89.3909 20 1004 bom main 1729 1729 ______O__P__P_ -1 -14.0000 89.3000 20 20 1004 1.00000 -14.0083 89.2864 TC 19 1004 -14.0083 89.5864 TC 24 1003 12 269
1976062S15115 1976 24 SI MM ALICE 1976-03-11 21:00:00 TS -14.0099 88.9675 main 1756 1763 ______P__P__P_ -1 -13.9999 88.9025 20 20 1004 -14.0149 88.8500 TC 17 1005 -14.0149 89.1500 TC 22 1004 12 270
1976062S15115 1976 24 SI MM ALICE 1976-03-11 22:00:00 TS -14.0089 88.7539 20 1005 bom main 1770 1770 ______O__P__P_ -1 -14.0000 88.7000 20 20 1005 1.00000 -14.0133 88.6309 TC 16 1005 -14.0133 88.9309 TC 21 1004 13 271
1976062S15115 1976 24 SI MM ALICE 1976-03-12 00:00:00 TS -14.0026 88.3103 main 1805 1805 ______P__O__O_ -1 -14.0079 88.2309 20 20 1005 -14.0000 88.2000 TC 15 1006 -14.0000 88.5000 TC 20 1005 13 271
1976062S15115 1976 24 SI MM ALICE 1976-03-12 01:00:00 TS -13.9926 88.0962 20 1006 bom main 1819 1819 ______O__P__P_ -1 -14.0000 88.0000 20 20 1006 1.00000 -13.9889 87.9943 TC 15 1006 -13.9889 88.2943 TC 19 1005 12 275
1976062S15115 1976 24 SI MM ALICE 1976-03-12 03:00:00 TS -13.9485 87.6932 main 1840 1840 ______P__P__P_ -1 -13.9308 87.5945 20 20 1006 -13.9573 87.5925 TC 15 1006 -13.9573 87.8925 TC 17 1005 12 277
1976062S15115 1976 24 SI MM ALICE 1976-03-12 04:00:00 TS -13.9257 87.4964 20 1006 bom main 1855 1855 ______O__P__P_ -1 -13.9000 87.4000 20 20 1006 1.00000 -13.9386 87.3945 TC 15 1006 -13.9386 87.6945 TC 16 1005 12 275
1976062S15115 1976 24 SI MM ALICE 1976-03-12 06:00:00 TS -13.9008 87.1000 main 1885 1885 ______P__O__O_ -1 -13.9024 87.0001 20 20 1006 -13.9000 87.0000 TC 15 1006 -13.9000 87.3000 TC 15 1006 12 274
1976062S15115 1976 24 SI MM ALICE 1976-03-12 07:00:00 TS -13.8888 86.9018 20 1006 bom main 1900 1900 ______O__P__P_ -1 -13.9000 86.8000 20 20 1006 1.00000 -13.8832 86.8026 TC 15 1006 -13.8832 87.1026 TC 15 1006 12 276
1976062S15115 1976 24 SI MM ALICE 1976-03-12 09:00:00 TS -13.8435 86.5050 main 1923 1923 ______P__P__P_ -1 -13.8308 86.4000 20 20 1006 -13.8498 86.4075 TC 15 1006 -13.8498 86.7075 TC 15 1006 12 277
1976062S15115 1976 24 SI MM ALICE 1976-03-12 10:00:00 TS -13.8221 86.3053 20 1006 bom main 1939 1939 ______O__P__P_ -1 -13.8000 86.2000 20 20 1006 1.00000 -13.8331 86.2079 TC 15 1006 -13.8332 86.5079 TC 15 1006 12 274
1976062S15115 1976 24 SI MM ALICE 1976-03-12 12:00:00 TS -13.8008 85.9026 main 1970 1970 ______P__O__O_ -1 -13.8024 85.8080 20 20 1006 -13.8000 85.8000 TC 15 1006 -13.8000 86.1000 TC 15 1006 12 273
1976062S15115 1976 24 SI MM ALICE 1976-03-12 13:00:00 TS -13.7897 85.6927 20 1006 bom main 1986 1986 ______O__P__P_ -1 -13.8000 85.6000 20 20 1006 1.00000 -13.7859 85.5891 TC 15 1006 -13.7833 85.8891 TC 15 1006 13 275
1976062S15115 1976 24 SI MM ALICE 1976-03-12 15:00:00 TS -13.7460 85.2486 main 2020 2020 ______P__P__P_ -1 -13.7309 85.1308 20 20 1006 -13.7574 85.1576 TC 15 1006 -13.7499 85.4575 TC 15 1006 13 276
1976062S15115 1976 24 SI MM ALICE 1976-03-12 16:00:00 TS -13.7248 85.0259 20 1007 bom main 2036 2036 ______O__P__P_ -1 -13.7000 84.9000 20 20 1007 1.00000 -13.7411 84.9388 TC 15 1006 -13.7332 85.2388 TC 15 1006 13 274
1976062S15115 1976 24 SI MM ALICE 1976-03-12 18:00:00 TS -13.7008 84.6008 main 2069 2069 ______P__O__O_ -1 -13.7024 84.5025 20 20 1007 -13.7000 84.5000 TC 15 1007 -13.7000 84.8000 TC 15 1006 12 274
1976062S15115 1976 24 SI MM ALICE 1976-03-12 19:00:00 TS -13.6857 84.3877 20 1007 bom main 2086 2086 ______O__P__P_ -1 -13.7000 84.3000 20 20 1007 1.00000 -13.6736 84.2816 TC 15 1007 -13.6834 84.5816 TC 15 1006 13 276
1976062S15115 1976 24 SI MM ALICE 1976-03-12 21:00:00 TS -13.6337 83.9308 main 2122 2122 ______P__P__P_ -1 -13.6388 83.8308 20 20 1007 -13.6103 83.8474 TC 15 1007 -13.6503 84.1475 TC 15 1006 13 277
1976062S15115 1976 24 SI MM ALICE 1976-03-12 22:00:00 TS -13.6024 83.7036 20 1007 bom main 2139 2139 ______O__P__P_ -1 -13.6000 83.6000 20 20 1007 1.00000 -13.5749 83.6312 TC 15 1007 -13.6337 83.9313 TC 15 1006 13 278
1976062S15115 1976 24 SI MM ALICE 1976-03-13 00:00:00 TS -13.5407 83.2701 main 2167 2176 ______P__O__O_ -1 -13.5314 83.1901 20 20 1007 -13.5000 83.2000 TC 15 1007 -13.6000 83.5000 TC 15 1007 14 279
1976062S15115 1976 24 SI MM ALICE 1976-03-13 01:00:00 NR -13.5000 83.0000 20 1007 bom main 2189 ______O_______ -1 -13.5000 83.0000 20 20 1007 1.00000 TC TC 16 279

About IBTrACS Database

This database is a web-friendly format of International Best Track Archive for Climate Stewardship (IBTrACS), a global best track data archive curated by NOAA dating back to 1842.

Updated: 2021-11-26